sensor_id;sensor_type;location;lat;lon;timestamp;P1;durP1;ratioP1;P2;durP2;ratioP2
21546;SDS011;41275;51.912;4.388;2024-03-22T00:04:57;26.35;;;11.20;;
21546;SDS011;41275;51.912;4.388;2024-03-22T00:10:19;32.60;;;11.80;;
21546;SDS011;41275;51.912;4.388;2024-03-22T00:15:40;26.10;;;11.15;;
21546;SDS011;41275;51.912;4.388;2024-03-22T00:21:03;29.27;;;12.02;;
21546;SDS011;41275;51.912;4.388;2024-03-22T00:26:24;31.95;;;12.10;;
21546;SDS011;41275;51.912;4.388;2024-03-22T00:31:45;32.47;;;12.60;;
21546;SDS011;41275;51.912;4.388;2024-03-22T00:37:07;34.07;;;14.00;;
21546;SDS011;41275;51.912;4.388;2024-03-22T00:42:28;34.85;;;14.23;;
21546;SDS011;41275;51.912;4.388;2024-03-22T00:47:49;32.20;;;12.70;;
21546;SDS011;41275;51.912;4.388;2024-03-22T00:53:10;39.78;;;15.85;;
21546;SDS011;41275;51.912;4.388;2024-03-22T00:58:32;36.13;;;14.57;;
21546;SDS011;41275;51.912;4.388;2024-03-22T01:03:53;30.50;;;12.17;;
21546;SDS011;41275;51.912;4.388;2024-03-22T01:09:15;38.17;;;13.13;;
21546;SDS011;41275;51.912;4.388;2024-03-22T01:14:36;33.60;;;12.38;;
21546;SDS011;41275;51.912;4.388;2024-03-22T01:19:57;31.02;;;11.50;;
21546;SDS011;41275;51.912;4.388;2024-03-22T01:25:18;28.88;;;11.00;;
21546;SDS011;41275;51.912;4.388;2024-03-22T01:30:40;28.07;;;10.67;;
21546;SDS011;41275;51.912;4.388;2024-03-22T01:36:01;28.47;;;9.90;;
21546;SDS011;41275;51.912;4.388;2024-03-22T01:41:22;28.00;;;9.48;;
21546;SDS011;41275;51.912;4.388;2024-03-22T01:46:44;22.43;;;8.93;;
21546;SDS011;41275;51.912;4.388;2024-03-22T01:52:08;19.42;;;8.55;;
21546;SDS011;41275;51.912;4.388;2024-03-22T01:57:30;19.90;;;8.50;;
21546;SDS011;41275;51.912;4.388;2024-03-22T02:02:52;23.47;;;9.40;;
21546;SDS011;41275;51.912;4.388;2024-03-22T02:08:13;21.83;;;9.20;;
21546;SDS011;41275;51.912;4.388;2024-03-22T02:13:34;22.83;;;9.18;;
21546;SDS011;41275;51.912;4.388;2024-03-22T02:18:56;19.48;;;8.50;;
21546;SDS011;41275;51.912;4.388;2024-03-22T02:24:17;19.25;;;7.22;;
21546;SDS011;41275;51.912;4.388;2024-03-22T02:29:38;17.27;;;6.88;;
21546;SDS011;41275;51.912;4.388;2024-03-22T02:34:59;17.17;;;7.80;;
21546;SDS011;41275;51.912;4.388;2024-03-22T02:40:20;21.00;;;8.27;;
21546;SDS011;41275;51.912;4.388;2024-03-22T02:45:42;20.57;;;7.80;;
21546;SDS011;41275;51.912;4.388;2024-03-22T02:51:03;19.02;;;7.97;;
21546;SDS011;41275;51.912;4.388;2024-03-22T02:56:24;21.77;;;7.77;;
21546;SDS011;41275;51.912;4.388;2024-03-22T03:01:47;14.95;;;6.13;;
21546;SDS011;41275;51.912;4.388;2024-03-22T03:07:09;20.25;;;7.70;;
21546;SDS011;41275;51.912;4.388;2024-03-22T03:12:31;22.38;;;6.63;;
21546;SDS011;41275;51.912;4.388;2024-03-22T03:17:52;14.73;;;6.30;;
21546;SDS011;41275;51.912;4.388;2024-03-22T03:23:13;17.43;;;6.13;;
21546;SDS011;41275;51.912;4.388;2024-03-22T03:28:35;17.50;;;5.30;;
21546;SDS011;41275;51.912;4.388;2024-03-22T03:33:56;18.70;;;5.22;;
21546;SDS011;41275;51.912;4.388;2024-03-22T03:39:17;15.88;;;5.50;;
21546;SDS011;41275;51.912;4.388;2024-03-22T03:44:38;17.95;;;5.60;;
21546;SDS011;41275;51.912;4.388;2024-03-22T03:49:59;16.17;;;5.38;;
21546;SDS011;41275;51.912;4.388;2024-03-22T03:55:21;15.50;;;5.83;;
21546;SDS011;41275;51.912;4.388;2024-03-22T04:00:43;20.05;;;6.88;;
21546;SDS011;41275;51.912;4.388;2024-03-22T04:06:04;24.15;;;9.02;;
21546;SDS011;41275;51.912;4.388;2024-03-22T04:11:25;24.25;;;10.25;;
21546;SDS011;41275;51.912;4.388;2024-03-22T04:16:47;23.63;;;9.32;;
21546;SDS011;41275;51.912;4.388;2024-03-22T04:22:08;20.98;;;9.00;;
21546;SDS011;41275;51.912;4.388;2024-03-22T04:27:29;18.33;;;7.45;;
21546;SDS011;41275;51.912;4.388;2024-03-22T04:32:51;20.63;;;6.93;;
21546;SDS011;41275;51.912;4.388;2024-03-22T04:38:12;18.10;;;7.30;;
21546;SDS011;41275;51.912;4.388;2024-03-22T04:43:33;22.70;;;9.18;;
21546;SDS011;41275;51.912;4.388;2024-03-22T04:48:55;20.83;;;10.00;;
21546;SDS011;41275;51.912;4.388;2024-03-22T04:54:16;22.97;;;10.47;;
21546;SDS011;41275;51.912;4.388;2024-03-22T04:59:37;17.85;;;7.97;;
21546;SDS011;41275;51.912;4.388;2024-03-22T05:04:58;14.52;;;7.07;;
21546;SDS011;41275;51.912;4.388;2024-03-22T05:10:19;23.42;;;7.15;;
21546;SDS011;41275;51.912;4.388;2024-03-22T05:15:41;16.27;;;6.32;;
21546;SDS011;41275;51.912;4.388;2024-03-22T05:21:02;14.73;;;6.90;;
21546;SDS011;41275;51.912;4.388;2024-03-22T05:26:23;19.48;;;8.00;;
21546;SDS011;41275;51.912;4.388;2024-03-22T05:31:46;20.98;;;8.20;;
21546;SDS011;41275;51.912;4.388;2024-03-22T05:37:11;20.17;;;8.63;;
21546;SDS011;41275;51.912;4.388;2024-03-22T05:42:33;23.35;;;8.90;;
21546;SDS011;41275;51.912;4.388;2024-03-22T05:47:54;16.20;;;7.35;;
21546;SDS011;41275;51.912;4.388;2024-03-22T05:53:15;20.83;;;7.90;;
21546;SDS011;41275;51.912;4.388;2024-03-22T05:58:36;22.63;;;7.77;;
21546;SDS011;41275;51.912;4.388;2024-03-22T06:03:58;17.27;;;7.38;;
21546;SDS011;41275;51.912;4.388;2024-03-22T06:09:19;25.17;;;8.65;;
21546;SDS011;41275;51.912;4.388;2024-03-22T06:14:55;18.52;;;7.40;;
21546;SDS011;41275;51.912;4.388;2024-03-22T06:20:16;21.33;;;8.50;;
21546;SDS011;41275;51.912;4.388;2024-03-22T06:25:37;19.23;;;7.33;;
21546;SDS011;41275;51.912;4.388;2024-03-22T06:30:59;19.57;;;7.80;;
21546;SDS011;41275;51.912;4.388;2024-03-22T06:36:20;19.33;;;7.60;;
21546;SDS011;41275;51.912;4.388;2024-03-22T06:41:43;19.55;;;6.50;;
21546;SDS011;41275;51.912;4.388;2024-03-22T06:47:05;16.60;;;6.72;;
21546;SDS011;41275;51.912;4.388;2024-03-22T06:52:27;16.25;;;5.80;;
21546;SDS011;41275;51.912;4.388;2024-03-22T06:57:49;18.75;;;6.35;;
21546;SDS011;41275;51.912;4.388;2024-03-22T07:03:10;18.80;;;6.72;;
21546;SDS011;41275;51.912;4.388;2024-03-22T07:08:31;15.83;;;6.20;;
21546;SDS011;41275;51.912;4.388;2024-03-22T07:13:53;16.20;;;6.17;;
21546;SDS011;41275;51.912;4.388;2024-03-22T07:19:14;18.77;;;4.82;;
21546;SDS011;41275;51.912;4.388;2024-03-22T07:24:35;14.32;;;4.70;;
21546;SDS011;41275;51.912;4.388;2024-03-22T07:29:57;13.38;;;4.40;;
21546;SDS011;41275;51.912;4.388;2024-03-22T07:35:18;13.93;;;5.50;;
21546;SDS011;41275;51.912;4.388;2024-03-22T07:40:39;14.88;;;5.47;;
21546;SDS011;41275;51.912;4.388;2024-03-22T07:46:01;14.00;;;4.10;;
21546;SDS011;41275;51.912;4.388;2024-03-22T07:51:22;13.98;;;3.72;;
21546;SDS011;41275;51.912;4.388;2024-03-22T07:56:43;11.63;;;3.40;;
21546;SDS011;41275;51.912;4.388;2024-03-22T08:02:05;9.10;;;3.20;;
21546;SDS011;41275;51.912;4.388;2024-03-22T08:07:26;11.33;;;4.37;;
21546;SDS011;41275;51.912;4.388;2024-03-22T08:12:48;13.45;;;4.35;;
21546;SDS011;41275;51.912;4.388;2024-03-22T08:18:09;16.50;;;4.20;;
21546;SDS011;41275;51.912;4.388;2024-03-22T08:23:30;11.23;;;4.33;;
21546;SDS011;41275;51.912;4.388;2024-03-22T08:28:52;11.32;;;3.63;;
21546;SDS011;41275;51.912;4.388;2024-03-22T08:34:13;15.60;;;4.45;;
21546;SDS011;41275;51.912;4.388;2024-03-22T08:39:34;18.17;;;4.23;;
21546;SDS011;41275;51.912;4.388;2024-03-22T08:44:55;13.53;;;4.20;;
21546;SDS011;41275;51.912;4.388;2024-03-22T08:50:17;14.98;;;4.30;;
21546;SDS011;41275;51.912;4.388;2024-03-22T08:55:38;12.60;;;4.10;;
21546;SDS011;41275;51.912;4.388;2024-03-22T09:00:59;13.87;;;3.93;;
21546;SDS011;41275;51.912;4.388;2024-03-22T09:06:20;12.20;;;3.65;;
21546;SDS011;41275;51.912;4.388;2024-03-22T09:11:42;9.07;;;3.80;;
21546;SDS011;41275;51.912;4.388;2024-03-22T09:17:04;12.53;;;4.17;;
21546;SDS011;41275;51.912;4.388;2024-03-22T09:22:25;14.33;;;3.97;;
21546;SDS011;41275;51.912;4.388;2024-03-22T09:27:46;12.27;;;3.92;;
21546;SDS011;41275;51.912;4.388;2024-03-22T09:33:07;13.13;;;3.75;;
21546;SDS011;41275;51.912;4.388;2024-03-22T09:38:29;11.20;;;4.07;;
21546;SDS011;41275;51.912;4.388;2024-03-22T09:43:51;11.80;;;4.32;;
21546;SDS011;41275;51.912;4.388;2024-03-22T09:49:13;14.37;;;3.43;;
21546;SDS011;41275;51.912;4.388;2024-03-22T09:54:34;12.93;;;3.63;;
21546;SDS011;41275;51.912;4.388;2024-03-22T09:59:55;12.48;;;3.47;;
21546;SDS011;41275;51.912;4.388;2024-03-22T10:05:17;14.30;;;3.30;;
21546;SDS011;41275;51.912;4.388;2024-03-22T10:10:39;9.85;;;3.88;;
21546;SDS011;41275;51.912;4.388;2024-03-22T10:16:00;14.17;;;3.60;;
21546;SDS011;41275;51.912;4.388;2024-03-22T10:21:21;7.65;;;3.28;;
21546;SDS011;41275;51.912;4.388;2024-03-22T10:26:43;11.27;;;4.15;;
21546;SDS011;41275;51.912;4.388;2024-03-22T10:32:04;12.02;;;3.85;;
21546;SDS011;41275;51.912;4.388;2024-03-22T10:37:27;13.27;;;3.83;;
21546;SDS011;41275;51.912;4.388;2024-03-22T10:42:48;8.10;;;3.20;;
21546;SDS011;41275;51.912;4.388;2024-03-22T10:48:10;7.13;;;3.30;;
21546;SDS011;41275;51.912;4.388;2024-03-22T10:53:32;6.35;;;2.67;;
21546;SDS011;41275;51.912;4.388;2024-03-22T10:58:53;8.87;;;3.20;;
21546;SDS011;41275;51.912;4.388;2024-03-22T11:04:19;6.88;;;2.97;;
21546;SDS011;41275;51.912;4.388;2024-03-22T11:09:43;8.70;;;3.17;;
21546;SDS011;41275;51.912;4.388;2024-03-22T11:15:13;7.05;;;3.33;;
21546;SDS011;41275;51.912;4.388;2024-03-22T11:20:37;7.65;;;3.33;;
21546;SDS011;41275;51.912;4.388;2024-03-22T11:25:58;6.90;;;3.50;;
21546;SDS011;41275;51.912;4.388;2024-03-22T11:31:20;9.60;;;4.20;;
21546;SDS011;41275;51.912;4.388;2024-03-22T11:36:46;9.40;;;4.07;;
21546;SDS011;41275;51.912;4.388;2024-03-22T11:42:07;8.55;;;4.25;;
21546;SDS011;41275;51.912;4.388;2024-03-22T11:47:30;10.45;;;4.28;;
21546;SDS011;41275;51.912;4.388;2024-03-22T11:52:51;12.60;;;4.60;;
21546;SDS011;41275;51.912;4.388;2024-03-22T11:58:13;11.27;;;4.35;;
21546;SDS011;41275;51.912;4.388;2024-03-22T12:03:34;11.85;;;4.57;;
21546;SDS011;41275;51.912;4.388;2024-03-22T12:08:56;12.10;;;4.25;;
21546;SDS011;41275;51.912;4.388;2024-03-22T12:14:17;8.13;;;3.80;;
21546;SDS011;41275;51.912;4.388;2024-03-22T12:19:38;7.20;;;3.63;;
21546;SDS011;41275;51.912;4.388;2024-03-22T12:24:59;6.97;;;3.00;;
21546;SDS011;41275;51.912;4.388;2024-03-22T12:30:21;6.23;;;3.20;;
21546;SDS011;41275;51.912;4.388;2024-03-22T12:35:42;6.43;;;3.10;;
21546;SDS011;41275;51.912;4.388;2024-03-22T12:41:04;7.77;;;3.97;;
21546;SDS011;41275;51.912;4.388;2024-03-22T12:46:26;11.17;;;4.90;;
21546;SDS011;41275;51.912;4.388;2024-03-22T12:51:48;7.77;;;4.40;;
21546;SDS011;41275;51.912;4.388;2024-03-22T12:57:10;11.48;;;5.65;;
21546;SDS011;41275;51.912;4.388;2024-03-22T13:02:31;13.52;;;5.95;;
21546;SDS011;41275;51.912;4.388;2024-03-22T13:07:53;13.25;;;6.03;;
21546;SDS011;41275;51.912;4.388;2024-03-22T13:13:14;12.93;;;5.95;;
21546;SDS011;41275;51.912;4.388;2024-03-22T13:18:37;12.50;;;5.68;;
21546;SDS011;41275;51.912;4.388;2024-03-22T13:23:58;15.10;;;5.50;;
21546;SDS011;41275;51.912;4.388;2024-03-22T13:29:19;11.68;;;5.43;;
21546;SDS011;41275;51.912;4.388;2024-03-22T13:34:41;11.40;;;5.75;;
21546;SDS011;41275;51.912;4.388;2024-03-22T13:40:03;12.43;;;5.40;;
21546;SDS011;41275;51.912;4.388;2024-03-22T13:45:25;13.80;;;5.78;;
21546;SDS011;41275;51.912;4.388;2024-03-22T13:50:46;10.80;;;5.40;;
21546;SDS011;41275;51.912;4.388;2024-03-22T13:56:07;13.43;;;5.43;;
21546;SDS011;41275;51.912;4.388;2024-03-22T14:01:28;14.17;;;5.50;;
21546;SDS011;41275;51.912;4.388;2024-03-22T14:06:50;16.75;;;5.25;;
21546;SDS011;41275;51.912;4.388;2024-03-22T14:12:11;9.80;;;5.07;;
21546;SDS011;41275;51.912;4.388;2024-03-22T14:17:33;13.50;;;5.00;;
21546;SDS011;41275;51.912;4.388;2024-03-22T14:22:54;14.47;;;4.50;;
21546;SDS011;41275;51.912;4.388;2024-03-22T14:28:15;11.20;;;4.85;;
21546;SDS011;41275;51.912;4.388;2024-03-22T14:33:37;10.85;;;5.10;;
21546;SDS011;41275;51.912;4.388;2024-03-22T14:38:59;12.70;;;5.07;;
21546;SDS011;41275;51.912;4.388;2024-03-22T14:44:20;11.73;;;4.53;;
21546;SDS011;41275;51.912;4.388;2024-03-22T14:49:41;11.60;;;4.70;;
21546;SDS011;41275;51.912;4.388;2024-03-22T14:55:03;9.55;;;4.15;;
21546;SDS011;41275;51.912;4.388;2024-03-22T15:00:24;9.52;;;3.72;;
21546;SDS011;41275;51.912;4.388;2024-03-22T15:05:49;12.48;;;4.03;;
21546;SDS011;41275;51.912;4.388;2024-03-22T15:11:11;8.90;;;4.10;;
21546;SDS011;41275;51.912;4.388;2024-03-22T15:16:32;8.60;;;3.15;;
21546;SDS011;41275;51.912;4.388;2024-03-22T15:21:55;9.18;;;3.17;;
21546;SDS011;41275;51.912;4.388;2024-03-22T15:27:16;9.55;;;3.10;;
21546;SDS011;41275;51.912;4.388;2024-03-22T15:32:37;10.50;;;2.60;;
21546;SDS011;41275;51.912;4.388;2024-03-22T15:37:58;9.63;;;2.50;;
21546;SDS011;41275;51.912;4.388;2024-03-22T15:43:20;10.85;;;2.38;;
21546;SDS011;41275;51.912;4.388;2024-03-22T15:48:41;13.80;;;2.20;;
21546;SDS011;41275;51.912;4.388;2024-03-22T15:54:02;9.93;;;1.98;;
21546;SDS011;41275;51.912;4.388;2024-03-22T15:59:25;10.70;;;1.65;;
21546;SDS011;41275;51.912;4.388;2024-03-22T16:04:47;11.30;;;1.52;;
21546;SDS011;41275;51.912;4.388;2024-03-22T16:10:14;8.67;;;1.77;;
21546;SDS011;41275;51.912;4.388;2024-03-22T16:15:35;11.70;;;1.90;;
21546;SDS011;41275;51.912;4.388;2024-03-22T16:20:56;13.95;;;2.10;;
21546;SDS011;41275;51.912;4.388;2024-03-22T16:26:17;15.97;;;2.20;;
21546;SDS011;41275;51.912;4.388;2024-03-22T16:31:38;9.68;;;2.38;;
21546;SDS011;41275;51.912;4.388;2024-03-22T16:37:01;15.47;;;2.33;;
21546;SDS011;41275;51.912;4.388;2024-03-22T16:42:22;8.65;;;2.10;;
21546;SDS011;41275;51.912;4.388;2024-03-22T16:47:43;14.35;;;1.95;;
21546;SDS011;41275;51.912;4.388;2024-03-22T16:53:05;10.13;;;1.98;;
21546;SDS011;41275;51.912;4.388;2024-03-22T16:58:26;8.17;;;1.60;;
21546;SDS011;41275;51.912;4.388;2024-03-22T17:03:47;14.77;;;2.08;;
21546;SDS011;41275;51.912;4.388;2024-03-22T17:09:09;12.95;;;2.00;;
21546;SDS011;41275;51.912;4.388;2024-03-22T17:14:31;14.65;;;2.30;;
21546;SDS011;41275;51.912;4.388;2024-03-22T17:19:53;9.23;;;2.17;;
21546;SDS011;41275;51.912;4.388;2024-03-22T17:25:14;11.27;;;2.15;;
21546;SDS011;41275;51.912;4.388;2024-03-22T17:30:35;12.70;;;2.43;;
21546;SDS011;41275;51.912;4.388;2024-03-22T17:35:57;11.70;;;2.63;;
21546;SDS011;41275;51.912;4.388;2024-03-22T17:41:19;9.38;;;2.33;;
21546;SDS011;41275;51.912;4.388;2024-03-22T17:46:40;15.07;;;2.47;;
21546;SDS011;41275;51.912;4.388;2024-03-22T17:52:02;14.77;;;2.35;;
21546;SDS011;41275;51.912;4.388;2024-03-22T17:57:23;13.45;;;2.38;;
21546;SDS011;41275;51.912;4.388;2024-03-22T18:02:45;12.10;;;2.40;;
21546;SDS011;41275;51.912;4.388;2024-03-22T18:08:06;7.88;;;2.80;;
21546;SDS011;41275;51.912;4.388;2024-03-22T18:13:27;17.00;;;3.60;;
21546;SDS011;41275;51.912;4.388;2024-03-22T18:18:49;10.68;;;3.40;;
21546;SDS011;41275;51.912;4.388;2024-03-22T18:24:13;14.30;;;4.07;;
21546;SDS011;41275;51.912;4.388;2024-03-22T18:29:36;16.13;;;3.73;;
21546;SDS011;41275;51.912;4.388;2024-03-22T18:34:57;14.95;;;2.53;;
21546;SDS011;41275;51.912;4.388;2024-03-22T18:40:18;11.38;;;2.63;;
21546;SDS011;41275;51.912;4.388;2024-03-22T18:45:40;13.88;;;4.13;;
21546;SDS011;41275;51.912;4.388;2024-03-22T18:51:01;16.97;;;3.30;;
21546;SDS011;41275;51.912;4.388;2024-03-22T18:56:22;18.80;;;4.13;;
21546;SDS011;41275;51.912;4.388;2024-03-22T19:01:44;14.63;;;3.53;;
21546;SDS011;41275;51.912;4.388;2024-03-22T19:07:05;9.60;;;2.22;;
21546;SDS011;41275;51.912;4.388;2024-03-22T19:12:26;11.18;;;2.90;;
21546;SDS011;41275;51.912;4.388;2024-03-22T19:17:47;14.63;;;3.17;;
21546;SDS011;41275;51.912;4.388;2024-03-22T19:23:09;12.35;;;2.72;;
21546;SDS011;41275;51.912;4.388;2024-03-22T19:28:30;22.92;;;3.42;;
21546;SDS011;41275;51.912;4.388;2024-03-22T19:33:51;11.83;;;2.43;;
21546;SDS011;41275;51.912;4.388;2024-03-22T19:39:12;11.57;;;2.70;;
21546;SDS011;41275;51.912;4.388;2024-03-22T19:44:34;12.63;;;2.53;;
21546;SDS011;41275;51.912;4.388;2024-03-22T19:49:55;14.50;;;2.60;;
21546;SDS011;41275;51.912;4.388;2024-03-22T19:55:16;14.13;;;2.88;;
21546;SDS011;41275;51.912;4.388;2024-03-22T20:00:37;13.05;;;3.10;;
21546;SDS011;41275;51.912;4.388;2024-03-22T20:05:58;12.63;;;3.73;;
21546;SDS011;41275;51.912;4.388;2024-03-22T20:11:21;13.93;;;3.45;;
21546;SDS011;41275;51.912;4.388;2024-03-22T20:16:42;12.05;;;3.17;;
21546;SDS011;41275;51.912;4.388;2024-03-22T20:22:03;10.48;;;3.20;;
21546;SDS011;41275;51.912;4.388;2024-03-22T20:27:25;16.90;;;3.50;;
21546;SDS011;41275;51.912;4.388;2024-03-22T20:32:46;15.23;;;3.22;;
